YBY weather

Bonnyville Airport
Bonnyville, Alberta, Canada

Public forecast

Using degrees Celsius for public forecast. Weather courtesy of forecast.io.

METAR (pilot weather report)

Closest report is CFB Cold Lake, 17.4 nm (32.1 km) ENE. Retrieved 2019/04/19 23:00 UTC (56 minutes ago):

CYOD 192300Z 30015G20KT 15SM FEW085 BKN230 14/M07 A2962 RMK CU2CI4 SLP041

TAF (pilot weather forecast)

Closest forecast is CFB Cold Lake, 17.4 nm (32.1 km) ENE. Retrieved 2019/04/19 18:35 UTC (5 hours ago):

TAF CYOD 191730Z 1918/2018 28012G22KT P6SM FEW050 FEW140 BKN250 FM192000 28015G25KT P6SM FEW040 BKN160 FM200200 27008KT P6SM FEW100 FEW160 FM201600 27012G22KT P6SM SCT100 RMK NXT FCST BY 200000Z